Virgo Phoenix — 3FMO8 — position and weather

sailwx.info

Track history (hours):
 
Tides and Currents Weather Stations Pressure Air Temp Water Temp Dewpoint Dewpoint Depression Visibility Wind Speed Wind Dir Waves Ship Positions

Virgo Phoenix

Last reported at 2017-Apr-24 04:22 UTC. Time now 2017-Apr-24 17:21 UTC.
Position N 34°51' E 139°38'.

Length 96 m; draft 5 m.

Type: Ship (hazmat cat C). MMSI: 370795000.

Date/timePositionNaut miles runAvg speedWind from/ knotsBaromVisibWave heightAir tempDewpointWater temp
2017-Apr-24 04:22N 34°51' E 139°38'513.5
2017-Apr-24 03:59N 34°56' E 139°38'613.4
2017-Apr-24 03:30N 35°02' E 139°40'714.4
2017-Apr-24 03:00N 35°09' E 139°44'713.3
2017-Apr-24 02:30N 35°15' E 139°46'612.6
2017-Apr-24 02:00N 35°20' E 139°42'2 4.6
2017-Apr-24 01:28N 35°22' E 139°41'0 0.0
2017-Apr-24 00:58N 35°22' E 139°41'0 0.0
2017-Apr-24 00:28N 35°22' E 139°41'0 0.0
2017-Apr-23 23:58N 35°22' E 139°41'0 0.0
2017-Apr-23 23:28N 35°22' E 139°41'0 0.0
2017-Apr-23 22:58N 35°22' E 139°41'0 0.0
2017-Apr-23 22:28N 35°22' E 139°41'0 0.0
2017-Apr-23 21:58N 35°22' E 139°41'0 0.0
2017-Apr-23 21:25N 35°22' E 139°41'0 0.0
2017-Apr-23 20:55N 35°22' E 139°41'0 0.0
2017-Apr-23 20:28N 35°22' E 139°41'0 0.1
2017-Apr-23 19:58N 35°22' E 139°41'0 0.0
2017-Apr-23 19:28N 35°22' E 139°41'0 0.0
2017-Apr-23 18:58N 35°22' E 139°41'0 0.0
2017-Apr-23 18:28N 35°22' E 139°41'0 0.0
2017-Apr-23 17:58N 35°22' E 139°41'0 0.0
2017-Apr-23 17:28N 35°22' E 139°41'0 0.1
2017-Apr-23 16:58N 35°22' E 139°41'0 0.0
2017-Apr-23 16:28N 35°22' E 139°41'0 0.0
2017-Apr-23 15:58N 35°22' E 139°41'0 0.0
2017-Apr-23 15:28N 35°23' E 139°41'0 0.0
2017-Apr-23 14:58N 35°23' E 139°41'0 0.0
2017-Apr-23 13:58N 35°23' E 139°41'0 0.0
2017-Apr-23 13:28N 35°23' E 139°41'0 0.0
2017-Apr-23 12:58N 35°23' E 139°41'0 0.0
2017-Apr-23 12:28N 35°23' E 139°41'0 0.0
2017-Apr-23 11:58N 35°23' E 139°41'0 0.0
2017-Apr-23 11:28N 35°23' E 139°41'0 0.0
2017-Apr-23 10:58N 35°23' E 139°41'2 3.3
2017-Apr-23 10:31N 35°24' E 139°42'713.3
2017-Apr-23 10:01N 35°28' E 139°48'714.6
2017-Apr-23 09:31N 35°32' E 139°55'612.2
2017-Apr-23 09:00N 35°38' E 139°59'1 0.1
2017-Apr-23 00:21N 35°39' E 139°58'3 8.5
2017-Apr-23 00:00N 35°36' E 139°59'5 9.9
2017-Apr-22 23:29N 35°32' E 139°56'612.8
2017-Apr-22 23:00N 35°27' E 139°50'612.2
2017-Apr-22 22:30N 35°23' E 139°45'611.1
2017-Apr-22 22:00N 35°17' E 139°45'611.6
2017-Apr-22 21:30N 35°11' E 139°47'612.8
2017-Apr-22 21:00N 35°05' E 139°44'713.4
2017-Apr-22 20:30N 35°01' E 139°38'236 6.3
2017-Apr-21 06:53N 34°07' E 134°59'714.5
2017-Apr-21 06:24N 34°14' E 134°58'713.7
2017-Apr-21 05:54N 34°21' E 134°60'613.9
2017-Apr-21 05:28N 34°26' E 135°05'714.3
2017-Apr-21 04:57N 34°31' E 135°11'613.8
2017-Apr-21 04:30N 34°36' E 135°15'510.5
2017-Apr-21 04:00N 34°41' E 135°15'1 1.4
2017-Apr-21 03:24N 34°42' E 135°15'0 0.0
2017-Apr-21 03:00N 34°42' E 135°15'0 0.0
2017-Apr-21 02:30N 34°42' E 135°15'0 0.0
2017-Apr-21 02:00N 34°42' E 135°15'0 0.0
2017-Apr-21 01:30N 34°42' E 135°15'0 0.0
2017-Apr-21 00:48N 34°42' E 135°15'0 0.0
2017-Apr-21 00:24N 34°42' E 135°15'0 0.0
2017-Apr-21 00:00N 34°42' E 135°15'0 0.0
2017-Apr-20 23:30N 34°42' E 135°15'0 0.0
2017-Apr-20 23:00N 34°42' E 135°15'1 1.5
2017-Apr-20 22:30N 34°42' E 135°15'4 7.9
2017-Apr-20 22:00N 34°39' E 135°18'0 0.2
2017-Apr-20 21:19N 34°39' E 135°18'0 0.0
2017-Apr-20 20:55N 34°39' E 135°18'0 0.0
2017-Apr-20 20:25N 34°39' E 135°18'0 0.0
2017-Apr-20 19:55N 34°39' E 135°18'0 0.0
2017-Apr-20 19:13N 34°39' E 135°18'0 0.0
2017-Apr-20 18:49N 34°39' E 135°18'0 0.0
2017-Apr-20 18:19N 34°39' E 135°18'0 0.0
2017-Apr-20 17:55N 34°39' E 135°18'0 0.0
2017-Apr-20 17:25N 34°39' E 135°18'0 0.0
2017-Apr-20 16:55N 34°39' E 135°18'0 0.0
2017-Apr-20 16:25N 34°39' E 135°18'0 0.0
2017-Apr-20 15:49N 34°39' E 135°18'0 0.0
2017-Apr-20 15:25N 34°39' E 135°18'0 0.0
2017-Apr-20 14:55N 34°39' E 135°18'0 0.0
2017-Apr-20 14:25N 34°39' E 135°18'0 0.1
2017-Apr-20 13:25N 34°39' E 135°18'0 0.0
2017-Apr-20 12:55N 34°39' E 135°18'0 0.0
2017-Apr-20 12:25N 34°39' E 135°18'0 0.0
2017-Apr-20 11:55N 34°39' E 135°18'0 0.0
2017-Apr-20 11:25N 34°39' E 135°18'0 0.0
2017-Apr-20 10:55N 34°39' E 135°18'0 0.1
2017-Apr-20 10:19N 34°39' E 135°18'0 0.1
2017-Apr-20 09:55N 34°39' E 135°18'0 0.0
2017-Apr-20 09:25N 34°39' E 135°18'0 0.0
2017-Apr-20 08:55N 34°39' E 135°18'0 0.1
2017-Apr-20 08:25N 34°39' E 135°18'0 0.1
2017-Apr-20 07:55N 34°39' E 135°18'0 0.0
2017-Apr-20 07:19N 34°39' E 135°18'0 0.0
2017-Apr-20 06:56N 34°39' E 135°18'3 7.2
2017-Apr-20 06:30N 34°37' E 135°15'5 1.8
2017-Apr-20 03:52N 34°39' E 135°09'0 0.0
2017-Apr-20 03:22N 34°39' E 135°09'0 0.0
2017-Apr-20 02:58N 34°39' E 135°09'0 0.0
2017-Apr-20 01:58N 34°39' E 135°09'0 0.0
2017-Apr-20 01:28N 34°39' E 135°09'0 0.0
2017-Apr-20 00:58N 34°39' E 135°09'0 0.0
2017-Apr-19 22:40N 34°39' E 135°09'0 1.6
2017-Apr-19 22:30N 34°38' E 135°09'0 0.6
2017-Apr-19 21:56N 34°38' E 135°09'0 0.0
2017-Apr-19 21:26N 34°38' E 135°09'0 0.0
2017-Apr-19 20:56N 34°38' E 135°09'0 0.0
2017-Apr-19 20:20N 34°38' E 135°09'0 0.0
2017-Apr-19 19:50N 34°38' E 135°09'0 0.0
2017-Apr-19 19:26N 34°38' E 135°09'0 0.0
2017-Apr-19 18:56N 34°38' E 135°09'0 0.0
2017-Apr-19 18:26N 34°38' E 135°09'0 0.0
2017-Apr-19 17:56N 34°38' E 135°09'0 0.0
2017-Apr-19 17:26N 34°38' E 135°09'0 0.0
2017-Apr-19 16:56N 34°38' E 135°09'0 0.1
2017-Apr-19 16:26N 34°38' E 135°09'0 0.0
2017-Apr-19 15:50N 34°38' E 135°09'0 0.0
2017-Apr-19 15:26N 34°38' E 135°09'0 0.0
2017-Apr-19 14:56N 34°38' E 135°09'0 0.1
2017-Apr-19 14:26N 34°38' E 135°09'0 0.0
2017-Apr-19 13:20N 34°38' E 135°09'0 0.0
2017-Apr-19 12:56N 34°38' E 135°09'0 0.0
2017-Apr-19 12:26N 34°38' E 135°09'0 0.0
2017-Apr-19 11:56N 34°38' E 135°09'2 3.7
2017-Apr-19 11:31N 34°37' E 135°08'610.7
2017-Apr-19 10:59N 34°37' E 135°02'  
Track history (hours):
 
Tides and Currents Weather Stations Pressure Air Temp Water Temp Dewpoint Dewpoint Depression Visibility Wind Speed Wind Dir Waves Ship Positions

Virgo Phoenix

Last reported at 2017-Apr-24 04:22 UTC. Time now 2017-Apr-24 17:21 UTC.
Position N 34°51' E 139°38'.

Length 96 m; draft 5 m.

Type: Ship (hazmat cat C). MMSI: 370795000.

Date/timePositionNaut miles runAvg speedWind from/ knotsBaromVisibWave heightAir tempDewpointWater temp
2017-Apr-24 04:22N 34°51' E 139°38'513.5
2017-Apr-24 03:59N 34°56' E 139°38'613.4
2017-Apr-24 03:30N 35°02' E 139°40'714.4
2017-Apr-24 03:00N 35°09' E 139°44'713.3
2017-Apr-24 02:30N 35°15' E 139°46'612.6
2017-Apr-24 02:00N 35°20' E 139°42'2 4.6
2017-Apr-24 01:28N 35°22' E 139°41'0 0.0
2017-Apr-24 00:58N 35°22' E 139°41'0 0.0
2017-Apr-24 00:28N 35°22' E 139°41'0 0.0
2017-Apr-23 23:58N 35°22' E 139°41'0 0.0
2017-Apr-23 23:28N 35°22' E 139°41'0 0.0
2017-Apr-23 22:58N 35°22' E 139°41'0 0.0
2017-Apr-23 22:28N 35°22' E 139°41'0 0.0
2017-Apr-23 21:58N 35°22' E 139°41'0 0.0
2017-Apr-23 21:25N 35°22' E 139°41'0 0.0
2017-Apr-23 20:55N 35°22' E 139°41'0 0.0
2017-Apr-23 20:28N 35°22' E 139°41'0 0.1
2017-Apr-23 19:58N 35°22' E 139°41'0 0.0
2017-Apr-23 19:28N 35°22' E 139°41'0 0.0
2017-Apr-23 18:58N 35°22' E 139°41'0 0.0
2017-Apr-23 18:28N 35°22' E 139°41'0 0.0
2017-Apr-23 17:58N 35°22' E 139°41'0 0.0
2017-Apr-23 17:28N 35°22' E 139°41'0 0.1
2017-Apr-23 16:58N 35°22' E 139°41'0 0.0
2017-Apr-23 16:28N 35°22' E 139°41'0 0.0
2017-Apr-23 15:58N 35°22' E 139°41'0 0.0
2017-Apr-23 15:28N 35°23' E 139°41'0 0.0
2017-Apr-23 14:58N 35°23' E 139°41'0 0.0
2017-Apr-23 13:58N 35°23' E 139°41'0 0.0
2017-Apr-23 13:28N 35°23' E 139°41'0 0.0
2017-Apr-23 12:58N 35°23' E 139°41'0 0.0
2017-Apr-23 12:28N 35°23' E 139°41'0 0.0
2017-Apr-23 11:58N 35°23' E 139°41'0 0.0
2017-Apr-23 11:28N 35°23' E 139°41'0 0.0
2017-Apr-23 10:58N 35°23' E 139°41'2 3.3
2017-Apr-23 10:31N 35°24' E 139°42'713.3
2017-Apr-23 10:01N 35°28' E 139°48'714.6
2017-Apr-23 09:31N 35°32' E 139°55'612.2
2017-Apr-23 09:00N 35°38' E 139°59'1 0.1
2017-Apr-23 00:21N 35°39' E 139°58'3 8.5
2017-Apr-23 00:00N 35°36' E 139°59'5 9.9
2017-Apr-22 23:29N 35°32' E 139°56'612.8
2017-Apr-22 23:00N 35°27' E 139°50'612.2
2017-Apr-22 22:30N 35°23' E 139°45'611.1
2017-Apr-22 22:00N 35°17' E 139°45'611.6
2017-Apr-22 21:30N 35°11' E 139°47'612.8
2017-Apr-22 21:00N 35°05' E 139°44'713.4
2017-Apr-22 20:30N 35°01' E 139°38'236 6.3
2017-Apr-21 06:53N 34°07' E 134°59'714.5
2017-Apr-21 06:24N 34°14' E 134°58'713.7
2017-Apr-21 05:54N 34°21' E 134°60'613.9
2017-Apr-21 05:28N 34°26' E 135°05'714.3
2017-Apr-21 04:57N 34°31' E 135°11'613.8
2017-Apr-21 04:30N 34°36' E 135°15'510.5
2017-Apr-21 04:00N 34°41' E 135°15'1 1.4
2017-Apr-21 03:24N 34°42' E 135°15'0 0.0
2017-Apr-21 03:00N 34°42' E 135°15'0 0.0
2017-Apr-21 02:30N 34°42' E 135°15'0 0.0
2017-Apr-21 02:00N 34°42' E 135°15'0 0.0
2017-Apr-21 01:30N 34°42' E 135°15'0 0.0
2017-Apr-21 00:48N 34°42' E 135°15'0 0.0
2017-Apr-21 00:24N 34°42' E 135°15'0 0.0
2017-Apr-21 00:00N 34°42' E 135°15'0 0.0
2017-Apr-20 23:30N 34°42' E 135°15'0 0.0
2017-Apr-20 23:00N 34°42' E 135°15'1 1.5
2017-Apr-20 22:30N 34°42' E 135°15'4 7.9
2017-Apr-20 22:00N 34°39' E 135°18'0 0.2
2017-Apr-20 21:19N 34°39' E 135°18'0 0.0
2017-Apr-20 20:55N 34°39' E 135°18'0 0.0
2017-Apr-20 20:25N 34°39' E 135°18'0 0.0
2017-Apr-20 19:55N 34°39' E 135°18'0 0.0
2017-Apr-20 19:13N 34°39' E 135°18'0 0.0
2017-Apr-20 18:49N 34°39' E 135°18'0 0.0
2017-Apr-20 18:19N 34°39' E 135°18'0 0.0
2017-Apr-20 17:55N 34°39' E 135°18'0 0.0
2017-Apr-20 17:25N 34°39' E 135°18'0 0.0
2017-Apr-20 16:55N 34°39' E 135°18'0 0.0
2017-Apr-20 16:25N 34°39' E 135°18'0 0.0
2017-Apr-20 15:49N 34°39' E 135°18'0 0.0
2017-Apr-20 15:25N 34°39' E 135°18'0 0.0
2017-Apr-20 14:55N 34°39' E 135°18'0 0.0
2017-Apr-20 14:25N 34°39' E 135°18'0 0.1
2017-Apr-20 13:25N 34°39' E 135°18'0 0.0
2017-Apr-20 12:55N 34°39' E 135°18'0 0.0
2017-Apr-20 12:25N 34°39' E 135°18'0 0.0
2017-Apr-20 11:55N 34°39' E 135°18'0 0.0
2017-Apr-20 11:25N 34°39' E 135°18'0 0.0
2017-Apr-20 10:55N 34°39' E 135°18'0 0.1
2017-Apr-20 10:19N 34°39' E 135°18'0 0.1
2017-Apr-20 09:55N 34°39' E 135°18'0 0.0
2017-Apr-20 09:25N 34°39' E 135°18'0 0.0
2017-Apr-20 08:55N 34°39' E 135°18'0 0.1
2017-Apr-20 08:25N 34°39' E 135°18'0 0.1
2017-Apr-20 07:55N 34°39' E 135°18'0 0.0
2017-Apr-20 07:19N 34°39' E 135°18'0 0.0
2017-Apr-20 06:56N 34°39' E 135°18'3 7.2
2017-Apr-20 06:30N 34°37' E 135°15'5 1.8
2017-Apr-20 03:52N 34°39' E 135°09'0 0.0
2017-Apr-20 03:22N 34°39' E 135°09'0 0.0
2017-Apr-20 02:58N 34°39' E 135°09'0 0.0
2017-Apr-20 01:58N 34°39' E 135°09'0 0.0
2017-Apr-20 01:28N 34°39' E 135°09'0 0.0
2017-Apr-20 00:58N 34°39' E 135°09'0 0.0
2017-Apr-19 22:40N 34°39' E 135°09'0 1.6
2017-Apr-19 22:30N 34°38' E 135°09'0 0.6
2017-Apr-19 21:56N 34°38' E 135°09'0 0.0
2017-Apr-19 21:26N 34°38' E 135°09'0 0.0
2017-Apr-19 20:56N 34°38' E 135°09'0 0.0
2017-Apr-19 20:20N 34°38' E 135°09'0 0.0
2017-Apr-19 19:50N 34°38' E 135°09'0 0.0
2017-Apr-19 19:26N 34°38' E 135°09'0 0.0
2017-Apr-19 18:56N 34°38' E 135°09'0 0.0
2017-Apr-19 18:26N 34°38' E 135°09'0 0.0
2017-Apr-19 17:56N 34°38' E 135°09'0 0.0
2017-Apr-19 17:26N 34°38' E 135°09'0 0.0
2017-Apr-19 16:56N 34°38' E 135°09'0 0.1
2017-Apr-19 16:26N 34°38' E 135°09'0 0.0
2017-Apr-19 15:50N 34°38' E 135°09'0 0.0
2017-Apr-19 15:26N 34°38' E 135°09'0 0.0
2017-Apr-19 14:56N 34°38' E 135°09'0 0.1
2017-Apr-19 14:26N 34°38' E 135°09'0 0.0
2017-Apr-19 13:20N 34°38' E 135°09'0 0.0
2017-Apr-19 12:56N 34°38' E 135°09'0 0.0
2017-Apr-19 12:26N 34°38' E 135°09'0 0.0
2017-Apr-19 11:56N 34°38' E 135°09'2 3.7
2017-Apr-19 11:31N 34°37' E 135°08'610.7
2017-Apr-19 10:59N 34°37' E 135°02'  

Dump ship's entire track history